createdAt,value
2022-11-05T00:02:16.651Z,17.7
2022-11-05T00:04:47.702Z,17.8
2022-11-05T00:07:19.036Z,17.6
2022-11-05T00:09:49.752Z,17.5
2022-11-05T00:12:21.473Z,17.5
2022-11-05T00:14:51.988Z,17.4
2022-11-05T00:17:23.233Z,17.4
2022-11-05T00:19:54.210Z,17.3
2022-11-05T00:22:25.190Z,17.2
2022-11-05T00:24:56.633Z,17.2
2022-11-05T00:27:27.567Z,17.3
2022-11-05T00:29:58.949Z,17.3
2022-11-05T00:32:30.308Z,17.3
2022-11-05T00:35:01.887Z,17.3
2022-11-05T00:37:33.434Z,17.3
2022-11-05T00:40:04.810Z,17.3
2022-11-05T00:42:36.206Z,17.2
2022-11-05T00:45:07.381Z,17.2
2022-11-05T00:47:37.966Z,17.2
2022-11-05T00:50:08.550Z,17.2
2022-11-05T00:52:39.227Z,17.1
2022-11-05T00:55:10.153Z,17.1
2022-11-05T00:57:41.595Z,16.9
2022-11-05T01:00:12.090Z,16.7
2022-11-05T01:02:43.607Z,16.7
2022-11-05T01:05:15.077Z,16.7
2022-11-05T01:07:46.347Z,16.6
2022-11-05T01:10:17.318Z,16.5
2022-11-05T01:12:48.577Z,16.6
2022-11-05T01:15:19.825Z,16.7
2022-11-05T01:17:50.852Z,16.7
2022-11-05T01:20:21.514Z,16.7
2022-11-05T01:22:52.766Z,16.6
2022-11-05T01:25:24.059Z,16.6
2022-11-05T01:27:55.445Z,16.6
2022-11-05T01:30:26.881Z,16.6
2022-11-05T01:32:58.183Z,16.7
2022-11-05T01:35:28.423Z,16.6
2022-11-05T01:37:59.544Z,16.6
2022-11-05T01:40:30.257Z,16.6
2022-11-05T01:43:01.577Z,16.7
2022-11-05T01:45:32.123Z,16.7
2022-11-05T01:48:03.634Z,16.7
2022-11-05T01:50:34.475Z,16.6
2022-11-05T01:53:05.661Z,16.6
2022-11-05T01:55:36.963Z,16.6
2022-11-05T01:58:07.123Z,16.6
2022-11-05T02:00:37.812Z,16.6
2022-11-05T02:03:08.788Z,16.7
2022-11-05T02:05:39.597Z,16.6
2022-11-05T02:08:10.469Z,16.7
2022-11-05T02:10:41.631Z,16.7
2022-11-05T02:13:13.475Z,16.6
2022-11-05T02:15:44.503Z,16.5
2022-11-05T02:18:15.706Z,16.6
2022-11-05T02:20:51.928Z,16.6
2022-11-05T02:23:18.036Z,16.5
2022-11-05T02:25:48.795Z,16.5
2022-11-05T02:28:19.509Z,16.5
2022-11-05T02:30:50.952Z,16.4
2022-11-05T02:33:21.941Z,16.5
2022-11-05T02:35:53.391Z,16.4
2022-11-05T02:38:24.348Z,16.4
2022-11-05T02:40:55.571Z,16.4
2022-11-05T02:43:26.062Z,16.5
2022-11-05T02:45:56.667Z,16.5
2022-11-05T02:48:28.344Z,16.4
2022-11-05T02:50:59.323Z,16.5
2022-11-05T02:53:29.912Z,16.4
2022-11-05T02:56:01.612Z,16.4
2022-11-05T02:58:32.644Z,16.4
2022-11-05T03:01:03.820Z,16.4
2022-11-05T03:03:34.302Z,16.3
2022-11-05T03:06:05.241Z,16.4
2022-11-05T03:08:37.095Z,16.4
2022-11-05T03:11:08.749Z,16.5
2022-11-05T03:13:39.892Z,16.4
2022-11-05T03:16:10.903Z,16.4
2022-11-05T03:18:41.503Z,16.5
2022-11-05T03:21:13.275Z,16.5
2022-11-05T03:23:44.073Z,16.4
2022-11-05T03:26:15.833Z,16.3
2022-11-05T03:28:46.980Z,16.4
2022-11-05T03:31:18.483Z,16.3
2022-11-05T03:33:49.672Z,16.3
2022-11-05T03:36:20.685Z,16.4
2022-11-05T03:38:51.549Z,16.3
2022-11-05T03:41:22.305Z,16.3
2022-11-05T03:43:53.301Z,16.4
2022-11-05T03:46:24.203Z,16.3
2022-11-05T03:48:55.753Z,16.3
2022-11-05T03:51:26.403Z,16.3
2022-11-05T03:53:58.159Z,16.3
2022-11-05T03:56:29.967Z,16.3
2022-11-05T03:59:01.827Z,16.3
2022-11-05T04:01:32.823Z,16.3
2022-11-05T04:04:04.040Z,16.3
2022-11-05T04:06:34.803Z,16.3
2022-11-05T04:09:05.756Z,16.3
2022-11-05T04:11:36.183Z,16.2
2022-11-05T04:14:07.251Z,16.2
2022-11-05T04:16:38.307Z,16.2
2022-11-05T04:19:09.943Z,16.2
2022-11-05T04:21:41.742Z,16.2
2022-11-05T04:24:12.617Z,16.2
2022-11-05T04:26:43.644Z,16.2
2022-11-05T04:29:14.946Z,16.2
2022-11-05T04:31:47.075Z,16.1
2022-11-05T04:34:17.406Z,16.1
2022-11-05T04:36:48.830Z,16.1
2022-11-05T04:39:19.707Z,16.1
2022-11-05T04:41:51.209Z,16.1
2022-11-05T04:44:22.955Z,16.1
2022-11-05T04:46:53.576Z,16.1
2022-11-05T04:49:24.729Z,16.1
2022-11-05T04:51:56.674Z,16.1
2022-11-05T04:54:28.138Z,16.1
2022-11-05T04:56:59.259Z,16.1
2022-11-05T04:59:31.413Z,16.1
2022-11-05T05:02:02.817Z,16
2022-11-05T05:04:34.183Z,16
2022-11-05T05:07:05.110Z,16
2022-11-05T05:09:36.374Z,16
2022-11-05T05:12:06.960Z,16.1
2022-11-05T05:14:38.308Z,16
2022-11-05T05:17:09.909Z,15.9
2022-11-05T05:19:41.382Z,15.9
2022-11-05T05:22:13.407Z,15.7
2022-11-05T05:24:48.654Z,15.7
2022-11-05T05:27:16.122Z,15.6
2022-11-05T05:29:48.063Z,15.5
2022-11-05T05:32:19.307Z,15.6
2022-11-05T05:34:50.426Z,15.6
2022-11-05T05:37:21.267Z,15.5
2022-11-05T05:39:51.802Z,15.6
2022-11-05T05:42:23.070Z,15.6
2022-11-05T05:44:53.998Z,15.6
2022-11-05T05:47:25.168Z,15.6
2022-11-05T05:49:56.777Z,15.6
2022-11-05T05:52:28.177Z,15.6
2022-11-05T05:54:59.195Z,15.5
2022-11-05T05:57:31.292Z,15.5
2022-11-05T06:00:03.304Z,15.5
2022-11-05T06:02:34.432Z,15.5
2022-11-05T06:05:05.981Z,15.5
2022-11-05T06:07:37.527Z,15.4
2022-11-05T06:10:06.787Z,15.5
2022-11-05T06:12:37.557Z,15.4
2022-11-05T06:15:08.838Z,15.3
2022-11-05T06:17:40.541Z,15.4
2022-11-05T06:20:11.667Z,15.5
2022-11-05T06:22:42.197Z,15.5
2022-11-05T06:25:13.883Z,15.5
2022-11-05T06:27:44.993Z,15.4
2022-11-05T06:30:16.981Z,15.5
2022-11-05T06:32:48.160Z,15.5
2022-11-05T06:35:19.010Z,15.4
2022-11-05T06:37:50.597Z,15.4
2022-11-05T06:40:22.123Z,15.5
2022-11-05T06:42:53.449Z,15.4
2022-11-05T06:45:24.715Z,15.6
2022-11-05T06:47:56.325Z,15.6
2022-11-05T06:50:28.207Z,15.6
2022-11-05T06:52:59.040Z,15.6
2022-11-05T06:55:29.777Z,15.6
2022-11-05T06:58:01.558Z,15.6
2022-11-05T07:00:32.621Z,15.5
2022-11-05T07:03:04.070Z,15.6
2022-11-05T07:05:34.938Z,15.6
2022-11-05T07:08:06.299Z,15.6
2022-11-05T07:10:36.710Z,15.5
2022-11-05T07:13:08.795Z,15.6
2022-11-05T07:15:38.396Z,15.7
2022-11-05T07:18:09.499Z,15.8
2022-11-05T07:20:40.884Z,15.7
2022-11-05T07:23:12.788Z,15.8
2022-11-05T07:25:43.950Z,15.8
2022-11-05T07:28:14.736Z,15.8
2022-11-05T07:30:45.801Z,15.9
2022-11-05T07:33:16.843Z,15.9
2022-11-05T07:35:47.862Z,16
2022-11-05T07:38:18.626Z,15.9
2022-11-05T07:40:49.831Z,15.9
2022-11-05T07:43:21.085Z,16
2022-11-05T07:45:52.474Z,16
2022-11-05T07:48:24.081Z,16
2022-11-05T07:50:54.677Z,16.1
2022-11-05T07:53:25.918Z,16.1
2022-11-05T07:55:57.177Z,16.1
2022-11-05T07:58:28.331Z,16
2022-11-05T08:01:00.571Z,16.1
2022-11-05T08:03:31.613Z,16.1
2022-11-05T08:06:02.550Z,16.1
2022-11-05T08:08:34.070Z,16.2
2022-11-05T08:11:04.938Z,16.2
2022-11-05T08:13:35.631Z,16.3
2022-11-05T08:16:06.952Z,16.4
2022-11-05T08:18:38.072Z,16.4
2022-11-05T08:21:09.337Z,16.5
2022-11-05T08:23:41.927Z,16.5
2022-11-05T08:26:13.789Z,16.6
2022-11-05T08:28:45.080Z,16.6
2022-11-05T08:31:17.198Z,16.6
2022-11-05T08:33:48.360Z,16.6
2022-11-05T08:36:19.226Z,16.7
2022-11-05T08:38:51.006Z,16.6
2022-11-05T08:41:22.918Z,16.7
2022-11-05T08:43:54.583Z,16.7
2022-11-05T08:46:27.066Z,16.8
2022-11-05T08:48:56.853Z,16.8
2022-11-05T08:51:29.603Z,16.8
2022-11-05T08:54:01.129Z,16.8
2022-11-05T08:56:32.740Z,16.8
2022-11-05T08:59:04.207Z,16.8
2022-11-05T09:01:35.588Z,16.8
2022-11-05T09:04:06.903Z,16.7
2022-11-05T09:06:38.176Z,16.8
2022-11-05T09:09:09.702Z,16.8
2022-11-05T09:12:05.626Z,16.8
2022-11-05T09:14:11.590Z,16.8
2022-11-05T09:16:42.619Z,16.8
2022-11-05T09:19:14.185Z,16.8
2022-11-05T09:21:45.778Z,16.8
2022-11-05T09:24:17.606Z,16.8
2022-11-05T09:26:48.764Z,16.9
2022-11-05T09:29:20.570Z,16.9
2022-11-05T09:31:52.343Z,16.9
2022-11-05T09:34:23.770Z,17
2022-11-05T09:36:54.965Z,16.9
2022-11-05T09:39:26.208Z,17
2022-11-05T09:41:57.422Z,17
2022-11-05T09:44:29.333Z,17
2022-11-05T09:47:00.019Z,16.9
2022-11-05T09:49:31.643Z,17
2022-11-05T09:52:03.289Z,17
2022-11-05T09:54:34.703Z,17
2022-11-05T09:57:05.707Z,17
2022-11-05T09:59:36.770Z,17
2022-11-05T10:02:08.666Z,17
2022-11-05T10:04:39.746Z,17
2022-11-05T10:07:10.706Z,17
2022-11-05T10:09:42.490Z,16.9
2022-11-05T10:12:13.710Z,17
2022-11-05T10:14:45.662Z,16.9
2022-11-05T10:17:16.618Z,16.8
2022-11-05T10:19:47.552Z,16.8
2022-11-05T10:22:19.306Z,16.8
2022-11-05T10:24:50.443Z,16.6
2022-11-05T10:27:20.013Z,16.5
2022-11-05T10:29:51.190Z,16.4
2022-11-05T10:32:22.372Z,16.4
2022-11-05T10:34:54.401Z,16.2
2022-11-05T10:37:25.887Z,16.3
2022-11-05T10:39:56.682Z,16.1
2022-11-05T10:42:27.619Z,16.1
2022-11-05T10:44:59.291Z,15.9
2022-11-05T10:47:30.709Z,15.9
2022-11-05T10:50:01.805Z,16
2022-11-05T10:52:33.587Z,15.9
2022-11-05T10:55:04.781Z,15.9
2022-11-05T10:57:35.847Z,15.7
2022-11-05T11:00:07.545Z,15.7
2022-11-05T11:02:39.047Z,15.5
2022-11-05T11:05:10.646Z,15.5
2022-11-05T11:07:41.669Z,15.5
2022-11-05T11:10:13.164Z,15.3
2022-11-05T11:12:44.494Z,15.2
2022-11-05T11:15:15.284Z,15.2
2022-11-05T11:17:46.646Z,15.2
2022-11-05T11:20:18.200Z,15.1
2022-11-05T11:22:48.843Z,15.1
2022-11-05T11:25:20.605Z,15.1
2022-11-05T11:27:52.170Z,15
2022-11-05T11:30:23.375Z,14.9
2022-11-05T11:32:54.469Z,15
2022-11-05T11:35:26.240Z,14.9
2022-11-05T11:37:58.347Z,15
2022-11-05T11:40:30.126Z,14.9
2022-11-05T11:43:00.904Z,15
2022-11-05T11:45:31.798Z,14.9
2022-11-05T11:48:02.690Z,14.9
2022-11-05T11:50:34.606Z,14.9
2022-11-05T11:53:06.433Z,14.9
2022-11-05T11:55:37.188Z,14.8
2022-11-05T11:58:08.553Z,14.7
2022-11-05T12:00:40.773Z,14.7
2022-11-05T12:03:12.823Z,14.7
2022-11-05T12:05:44.267Z,14.6
2022-11-05T12:08:15.834Z,14.6
2022-11-05T12:10:47.433Z,14.7
2022-11-05T12:13:18.848Z,14.7
2022-11-05T12:15:50.285Z,14.6
2022-11-05T12:18:22.133Z,14.6
2022-11-05T12:20:57.929Z,14.6
2022-11-05T12:23:25.070Z,14.6
2022-11-05T12:25:56.277Z,14.6
2022-11-05T12:28:29.475Z,14.6
2022-11-05T12:31:00.492Z,14.6
2022-11-05T12:33:31.586Z,14.6
2022-11-05T12:36:02.758Z,14.6
2022-11-05T12:38:34.920Z,14.5
2022-11-05T12:41:06.548Z,14.5
2022-11-05T12:43:37.764Z,14.5
2022-11-05T12:46:09.064Z,14.6
2022-11-05T12:48:40.725Z,14.4
2022-11-05T12:51:12.298Z,14.5
2022-11-05T12:53:43.986Z,14.4
2022-11-05T12:56:15.086Z,14.4
2022-11-05T12:58:46.927Z,14.3
2022-11-05T13:01:18.494Z,14.3
2022-11-05T13:03:50.294Z,14.4
2022-11-05T13:06:21.370Z,14.3
2022-11-05T13:08:52.772Z,14.4
2022-11-05T13:11:24.284Z,14.3
2022-11-05T13:13:55.477Z,14.3
2022-11-05T13:16:26.724Z,14.3
2022-11-05T13:18:58.420Z,14.2
2022-11-05T13:21:29.791Z,14.2
2022-11-05T13:24:01.514Z,14.1
2022-11-05T13:26:33.325Z,14.2
2022-11-05T13:29:05.065Z,14.1
2022-11-05T13:31:36.737Z,14.2
2022-11-05T13:34:08.170Z,14.1
2022-11-05T13:36:38.997Z,14.1
2022-11-05T13:39:10.410Z,14.1
2022-11-05T13:41:42.097Z,14.1
2022-11-05T13:44:14.483Z,14.1
2022-11-05T13:46:45.371Z,14.1
2022-11-05T13:49:16.493Z,14.1
2022-11-05T13:51:47.845Z,14
2022-11-05T13:54:19.567Z,13.9
2022-11-05T13:56:50.421Z,13.9
2022-11-05T13:59:22.170Z,13.9
2022-11-05T14:01:55.422Z,13.9
2022-11-05T14:04:26.901Z,13.9
2022-11-05T14:06:57.470Z,13.9
2022-11-05T14:09:29.537Z,13.9
2022-11-05T14:12:00.832Z,13.9
2022-11-05T14:14:31.040Z,13.8
2022-11-05T14:17:02.019Z,13.7
2022-11-05T14:19:34.495Z,13.8
2022-11-05T14:22:06.275Z,13.8
2022-11-05T14:24:38.808Z,13.8
2022-11-05T14:27:09.813Z,13.8
2022-11-05T14:29:41.452Z,13.7
2022-11-05T14:32:12.697Z,13.7
2022-11-05T14:34:43.887Z,13.6
2022-11-05T14:37:14.643Z,13.7
2022-11-05T14:39:46.550Z,13.7
2022-11-05T14:42:17.447Z,13.7
2022-11-05T14:44:49.292Z,13.6
2022-11-05T14:47:20.217Z,13.7
2022-11-05T14:49:51.408Z,13.7
2022-11-05T14:52:22.312Z,13.8
2022-11-05T14:54:53.541Z,13.7
2022-11-05T14:57:24.764Z,13.6
2022-11-05T14:59:56.895Z,13.6
2022-11-05T15:02:29.264Z,13.6
2022-11-05T15:05:04.545Z,13.6
2022-11-05T15:07:35.323Z,13.6
2022-11-05T15:10:10.459Z,13.5
2022-11-05T15:12:41.457Z,13.5
2022-11-05T15:15:17.346Z,13.4
2022-11-05T15:17:45.334Z,13.4
2022-11-05T15:20:17.173Z,13.4
2022-11-05T15:22:48.875Z,13.4
2022-11-05T15:25:20.183Z,13.4
2022-11-05T15:27:52.076Z,13.4
2022-11-05T15:30:23.610Z,13.4
2022-11-05T15:32:55.187Z,13.5
2022-11-05T15:35:26.342Z,13.5
2022-11-05T15:38:01.978Z,13.5
2022-11-05T15:40:29.498Z,13.4
2022-11-05T15:43:00.612Z,13.5
2022-11-05T15:45:31.953Z,13.4
2022-11-05T15:48:02.991Z,13.4
2022-11-05T15:50:34.274Z,13.5
2022-11-05T15:53:27.722Z,13.4
2022-11-05T15:55:37.020Z,13.4
2022-11-05T15:58:06.509Z,13.4
2022-11-05T16:00:37.354Z,13.4
2022-11-05T16:03:09.834Z,13.5
2022-11-05T16:05:41.746Z,13.3
2022-11-05T16:08:13.665Z,13.4
2022-11-05T16:10:45.084Z,13.5
2022-11-05T16:13:16.904Z,13.4
2022-11-05T16:15:48.039Z,13.4
2022-11-05T16:18:19.529Z,13.4
2022-11-05T16:20:51.330Z,13.4
2022-11-05T16:23:22.763Z,13.5
2022-11-05T16:25:53.490Z,13.4
2022-11-05T16:28:25.435Z,13.4
2022-11-05T16:30:57.579Z,13.4
2022-11-05T16:33:29.571Z,13.5
2022-11-05T16:36:01.553Z,13.4
2022-11-05T16:38:32.402Z,13.4
2022-11-05T16:41:03.690Z,13.5
2022-11-05T16:43:34.542Z,13.4
2022-11-05T16:46:06.129Z,13.4
2022-11-05T16:48:36.914Z,13.3
2022-11-05T16:51:08.306Z,13.3
2022-11-05T16:53:39.704Z,13.3
2022-11-05T16:56:11.699Z,13.3
2022-11-05T16:58:43.422Z,13.3
2022-11-05T17:01:14.459Z,13.4
2022-11-05T17:03:45.962Z,13.5
2022-11-05T17:06:17.572Z,13.4
2022-11-05T17:08:48.875Z,13.5
2022-11-05T17:11:20.515Z,13.4
2022-11-05T17:13:51.685Z,13.4
2022-11-05T17:16:22.835Z,13.4
2022-11-05T17:18:54.062Z,13.4
2022-11-05T17:21:25.551Z,13.4
2022-11-05T17:23:57.234Z,13.4
2022-11-05T17:26:28.952Z,13.4
2022-11-05T17:28:59.767Z,13.4
2022-11-05T17:31:31.863Z,13.4
2022-11-05T17:34:03.292Z,13.5
2022-11-05T17:36:34.683Z,13.5
2022-11-05T17:39:05.873Z,13.5
2022-11-05T17:41:37.153Z,13.5
2022-11-05T17:44:08.022Z,13.4
2022-11-05T17:46:38.829Z,13.4
2022-11-05T17:49:10.413Z,13.5
2022-11-05T17:51:43.567Z,13.4
2022-11-05T17:54:14.843Z,13.4
2022-11-05T17:56:46.417Z,13.5
2022-11-05T17:59:17.066Z,13.5
2022-11-05T18:01:48.466Z,13.5
2022-11-05T18:04:19.391Z,13.6
2022-11-05T18:06:51.159Z,13.6
2022-11-05T18:09:22.045Z,13.5
2022-11-05T18:11:54.062Z,13.6
2022-11-05T18:14:26.329Z,13.5
2022-11-05T18:16:57.236Z,13.4
2022-11-05T18:19:29.749Z,13.5
2022-11-05T18:22:00.825Z,13.5
2022-11-05T18:24:34.211Z,13.5
2022-11-05T18:27:06.458Z,13.4
2022-11-05T18:29:37.590Z,13.5
2022-11-05T18:32:09.325Z,13.5
2022-11-05T18:34:41.047Z,13.4
2022-11-05T18:37:13.544Z,13.4
2022-11-05T18:39:44.703Z,13.5
2022-11-05T18:42:15.862Z,13.4
2022-11-05T18:44:47.175Z,13.5
2022-11-05T18:47:18.583Z,13.5
2022-11-05T18:49:49.536Z,13.6
2022-11-05T18:52:20.978Z,13.5
2022-11-05T18:54:50.501Z,13.5
2022-11-05T18:57:21.702Z,13.5
2022-11-05T18:59:53.051Z,13.5
2022-11-05T19:02:24.794Z,13.5
2022-11-05T19:05:22.408Z,13.6
2022-11-05T19:07:29.450Z,13.6
2022-11-05T19:10:01.041Z,13.5
2022-11-05T19:12:32.203Z,13.5
2022-11-05T19:15:03.909Z,13.6
2022-11-05T19:17:36.137Z,13.5
2022-11-05T19:20:07.337Z,13.5
2022-11-05T19:22:38.232Z,13.6
2022-11-05T19:25:09.695Z,13.6
2022-11-05T19:27:40.954Z,13.7
2022-11-05T19:30:14.882Z,13.7
2022-11-05T19:32:48.067Z,13.7
2022-11-05T19:35:19.701Z,13.6
2022-11-05T19:37:51.726Z,13.6
2022-11-05T19:40:22.878Z,13.5
2022-11-05T19:42:54.082Z,13.5
2022-11-05T19:47:56.669Z,13.5
2022-11-05T19:50:28.706Z,13.6
2022-11-05T19:53:01.154Z,13.6
2022-11-05T19:55:32.308Z,13.6
2022-11-05T19:58:03.466Z,13.6
2022-11-05T20:00:35.003Z,13.6
2022-11-05T20:03:06.382Z,13.6
2022-11-05T20:05:38.249Z,13.6
2022-11-05T20:08:10.459Z,13.6
2022-11-05T20:10:40.928Z,13.6
2022-11-05T20:13:15.597Z,13.6
2022-11-05T20:15:44.667Z,13.7
2022-11-05T20:18:16.407Z,13.6
2022-11-05T20:20:48.190Z,13.6
2022-11-05T20:23:20.586Z,13.6
2022-11-05T20:25:52.316Z,13.6
2022-11-05T20:28:23.813Z,13.6
2022-11-05T20:30:54.894Z,13.6
2022-11-05T20:33:26.345Z,13.6
2022-11-05T20:35:57.386Z,13.6
2022-11-05T20:38:30.005Z,13.6
2022-11-05T20:41:01.534Z,13.5
2022-11-05T20:43:33.907Z,13.5
2022-11-05T20:46:05.764Z,13.6
2022-11-05T20:48:37.158Z,13.6
2022-11-05T20:51:08.622Z,13.6
2022-11-05T20:53:41.284Z,13.6
2022-11-05T20:56:13.394Z,13.6
2022-11-05T20:58:44.635Z,13.6
2022-11-05T21:01:16.675Z,13.6
2022-11-05T21:03:49.022Z,13.6
2022-11-05T21:06:20.093Z,13.6
2022-11-05T21:08:53.064Z,13.6
2022-11-05T21:11:24.245Z,13.6
2022-11-05T21:13:55.637Z,13.6
2022-11-05T21:16:27.252Z,13.6
2022-11-05T21:18:58.432Z,13.6
2022-11-05T21:21:29.993Z,13.6
2022-11-05T21:24:01.455Z,13.6
2022-11-05T21:26:32.763Z,13.5
2022-11-05T21:29:04.202Z,13.5
2022-11-05T21:31:35.764Z,13.6
2022-11-05T21:34:06.910Z,13.5
2022-11-05T21:36:38.011Z,13.6
2022-11-05T21:39:13.348Z,13.5
2022-11-05T21:41:40.947Z,13.6
2022-11-05T21:44:11.984Z,13.6
2022-11-05T21:46:43.452Z,13.5
2022-11-05T21:49:14.711Z,13.6
2022-11-05T21:51:47.018Z,13.5
2022-11-05T21:54:18.451Z,13.6
2022-11-05T21:56:50.784Z,13.5
2022-11-05T21:59:25.832Z,13.5
2022-11-05T22:01:57.532Z,13.6
2022-11-05T22:04:29.301Z,13.6
2022-11-05T22:07:00.882Z,13.5
2022-11-05T22:09:32.268Z,13.6
2022-11-05T22:12:03.750Z,13.6
2022-11-05T22:14:37.411Z,13.6
2022-11-05T22:17:09.634Z,13.5
2022-11-05T22:19:41.486Z,13.5
2022-11-05T22:22:12.298Z,13.6
2022-11-05T22:24:44.122Z,13.6
2022-11-05T22:27:15.312Z,13.5
2022-11-05T22:29:48.900Z,13.6
2022-11-05T22:32:20.001Z,13.6
2022-11-05T22:34:51.288Z,13.6
2022-11-05T22:37:22.939Z,13.6
2022-11-05T22:39:54.953Z,13.6
2022-11-05T22:42:26.982Z,13.5
2022-11-05T22:44:58.791Z,13.5
2022-11-05T22:47:30.467Z,13.6
2022-11-05T22:50:02.618Z,13.6
2022-11-05T22:52:33.912Z,13.6
2022-11-05T22:55:05.253Z,13.6
2022-11-05T22:57:37.192Z,13.6
2022-11-05T23:00:10.525Z,13.5
2022-11-05T23:02:42.299Z,13.5
2022-11-05T23:05:17.383Z,13.6
2022-11-05T23:07:48.919Z,13.6
2022-11-05T23:10:20.179Z,13.5
2022-11-05T23:12:50.960Z,13.5
2022-11-05T23:15:22.225Z,13.5
2022-11-05T23:17:53.104Z,13.5
2022-11-05T23:20:24.304Z,13.5
2022-11-05T23:22:55.431Z,13.5
2022-11-05T23:25:27.112Z,13.5
2022-11-05T23:27:58.168Z,13.5
2022-11-05T23:30:29.730Z,13.5
2022-11-05T23:33:00.805Z,13.5
2022-11-05T23:35:31.608Z,13.5
2022-11-05T23:38:02.299Z,13.5
2022-11-05T23:40:33.388Z,13.5
2022-11-05T23:43:04.387Z,13.5
2022-11-05T23:45:35.261Z,13.5
2022-11-05T23:48:06.310Z,13.6
2022-11-05T23:50:39.891Z,13.6
2022-11-05T23:53:08.745Z,13.5
2022-11-05T23:55:39.270Z,13.6
2022-11-05T23:58:11.047Z,13.5
